createdAt,value
2022-09-24T00:04:01.405Z,96865.00
2022-09-24T00:09:02.391Z,96866.00
2022-09-24T00:14:06.109Z,96861.00
2022-09-24T00:19:07.134Z,96854.00
2022-09-24T00:25:49.672Z,96853.00
2022-09-24T00:30:51.619Z,96846.00
2022-09-24T00:35:52.344Z,96846.00
2022-09-24T00:40:53.379Z,96839.00
2022-09-24T00:46:00.817Z,96845.00
2022-09-24T00:51:03.910Z,96838.00
2022-09-24T00:56:08.474Z,96835.00
2022-09-24T01:01:09.303Z,96829.00
2022-09-24T01:06:10.680Z,96824.00
2022-09-24T01:14:08.284Z,96819.00
2022-09-24T01:19:43.375Z,96815.00
2022-09-24T01:26:55.876Z,96802.00
2022-09-24T01:32:19.423Z,96802.00
2022-09-24T01:37:22.123Z,96791.00
2022-09-24T01:42:26.829Z,96781.00
2022-09-24T01:47:39.305Z,96789.00
2022-09-24T01:52:45.352Z,96768.00
2022-09-24T01:57:51.492Z,96765.00
2022-09-24T02:03:12.457Z,96761.00
2022-09-24T02:08:19.773Z,96770.00
2022-09-24T02:13:24.309Z,96767.00
2022-09-24T02:18:31.166Z,96772.00
2022-09-24T02:23:36.322Z,96770.00
2022-09-24T02:28:37.253Z,96767.00
2022-09-24T02:34:00.295Z,96762.00
2022-09-24T02:39:02.419Z,96762.00
2022-09-24T02:44:03.179Z,96769.00
2022-09-24T02:49:04.070Z,96775.00
2022-09-24T02:54:05.236Z,96768.00
2022-09-24T02:59:07.023Z,96763.00
2022-09-24T03:04:08.311Z,96761.00
2022-09-24T03:09:12.106Z,96744.00
2022-09-24T03:14:12.832Z,96733.00
2022-09-24T03:19:13.775Z,96728.00
2022-09-24T03:24:14.532Z,96720.00
2022-09-24T03:29:15.503Z,96712.00
2022-09-24T03:34:16.221Z,96725.00
2022-09-24T03:39:17.045Z,96721.00
2022-09-24T03:44:17.753Z,96726.00
2022-09-24T03:49:18.547Z,96734.00
2022-09-24T03:54:19.373Z,96727.00
2022-09-24T03:59:20.277Z,96727.00
2022-09-24T04:04:21.006Z,96716.00
2022-09-24T04:09:21.773Z,96708.00
2022-09-24T04:14:22.519Z,96707.00
2022-09-24T04:19:23.613Z,96697.00
2022-09-24T04:24:24.329Z,96695.00
2022-09-24T04:29:25.198Z,96696.00
2022-09-24T04:34:25.924Z,96681.00
2022-09-24T04:39:27.057Z,96678.00
2022-09-24T04:44:29.416Z,96685.00
2022-09-24T04:49:30.215Z,96676.00
2022-09-24T04:54:31.034Z,96684.00
2022-09-24T04:59:31.938Z,96685.00
2022-09-24T05:04:32.686Z,96692.00
2022-09-24T05:09:34.269Z,96689.00
2022-09-24T05:14:34.990Z,96699.00
2022-09-24T05:19:35.906Z,96697.00
2022-09-24T05:24:36.695Z,96708.00
2022-09-24T05:29:39.325Z,96706.00
2022-09-24T05:34:42.469Z,96700.00
2022-09-24T05:39:43.365Z,96707.00
2022-09-24T05:44:46.477Z,96704.00
2022-09-24T05:49:48.262Z,96714.00
2022-09-24T05:54:48.976Z,96715.00
2022-09-24T05:59:49.992Z,96725.00
2022-09-24T06:04:50.728Z,96727.00
2022-09-24T06:09:51.509Z,96722.00
2022-09-24T06:14:54.812Z,96713.00
2022-09-24T06:19:57.275Z,96720.00
2022-09-24T06:24:58.003Z,96720.00
2022-09-24T06:29:58.895Z,96719.00
2022-09-24T06:35:00.274Z,96719.00
2022-09-24T06:40:01.594Z,96717.00
2022-09-24T06:45:02.450Z,96722.00
2022-09-24T06:50:04.213Z,96730.00
2022-09-24T06:55:05.597Z,96735.00
2022-09-24T07:00:07.580Z,96738.00
2022-09-24T07:05:09.499Z,96734.00
2022-09-24T07:10:10.290Z,96732.00
2022-09-24T07:15:11.096Z,96739.00
2022-09-24T07:20:11.928Z,96744.00
2022-09-24T07:25:13.346Z,96743.00
2022-09-24T07:30:14.274Z,96743.00
2022-09-24T07:35:16.015Z,96748.00
2022-09-24T07:40:17.399Z,96739.00
2022-09-24T07:45:18.187Z,96732.00
2022-09-24T07:50:19.213Z,96729.00
2022-09-24T07:55:20.757Z,96737.00
2022-09-24T08:00:23.539Z,96749.00
2022-09-24T08:05:24.619Z,96760.00
2022-09-24T08:10:27.540Z,96750.00
2022-09-24T08:15:28.367Z,96751.00
2022-09-24T08:20:29.950Z,96759.00
2022-09-24T08:25:31.353Z,96759.00
2022-09-24T08:30:33.387Z,96764.00
2022-09-24T08:35:34.703Z,96768.00
2022-09-24T08:40:52.971Z,96772.00
2022-09-24T08:46:16.641Z,96770.00
2022-09-24T08:51:21.462Z,96774.00
2022-09-24T08:56:30.281Z,96771.00
2022-09-24T09:01:45.424Z,96781.00
2022-09-24T09:07:04.122Z,96781.00
2022-09-24T09:12:11.959Z,96791.00
2022-09-24T09:17:42.114Z,96786.00
2022-09-24T09:22:49.143Z,96781.00
2022-09-24T09:28:14.308Z,96794.00
2022-09-24T09:37:00.025Z,96781.00
2022-09-24T09:42:19.816Z,96775.00
2022-09-24T09:47:57.540Z,96786.00
2022-09-24T09:52:58.577Z,96778.00
2022-09-24T09:58:21.477Z,96772.00
2022-09-24T10:03:29.101Z,96782.00
2022-09-24T10:08:31.158Z,96777.00
2022-09-24T10:13:31.923Z,96774.00
2022-09-24T10:18:35.454Z,96766.00
2022-09-24T10:23:42.777Z,96755.00
2022-09-24T10:29:07.865Z,96761.00
2022-09-24T10:34:26.021Z,96764.00
2022-09-24T10:39:27.528Z,96765.00
2022-09-24T10:44:37.707Z,96753.00
2022-09-24T10:50:15.992Z,96763.00
2022-09-24T10:56:51.202Z,96757.00
2022-09-24T11:03:53.105Z,96756.00
2022-09-24T11:09:09.529Z,96764.00
2022-09-24T11:14:35.007Z,96762.00
2022-09-24T11:20:00.974Z,96761.00
2022-09-24T11:27:01.105Z,96750.00
2022-09-24T11:34:12.454Z,96749.00
2022-09-24T11:43:58.944Z,96746.00
2022-09-24T11:49:37.064Z,96755.00
2022-09-24T11:55:01.562Z,96742.00
2022-09-24T12:00:09.425Z,96731.00
2022-09-24T12:08:46.588Z,96728.00
2022-09-24T12:13:57.276Z,96704.00
2022-09-24T12:19:07.195Z,96712.00
2022-09-24T12:24:27.322Z,96699.00
2022-09-24T12:30:08.884Z,96705.00
2022-09-24T12:36:56.996Z,96711.00
2022-09-24T12:42:02.641Z,96712.00
2022-09-24T12:47:03.769Z,96703.00
2022-09-24T12:52:18.157Z,96713.00
2022-09-24T12:57:25.506Z,96716.00
2022-09-24T13:02:48.292Z,96715.00
2022-09-24T13:08:38.023Z,96715.00
2022-09-24T13:13:44.210Z,96714.00
2022-09-24T13:19:01.607Z,96699.00
2022-09-24T13:24:10.925Z,96699.00
2022-09-24T13:29:24.374Z,96702.00
2022-09-24T13:34:28.186Z,96699.00
2022-09-24T13:39:36.255Z,96702.00
2022-09-24T13:44:43.022Z,96706.00
2022-09-24T13:49:47.179Z,96701.00
2022-09-24T13:54:52.526Z,96697.00
2022-09-24T14:00:23.633Z,96694.00
2022-09-24T14:05:26.747Z,96694.00
2022-09-24T14:10:27.783Z,96690.00
2022-09-24T14:15:28.831Z,96696.00
2022-09-24T14:20:34.467Z,96685.00
2022-09-24T14:25:38.962Z,96668.00
2022-09-24T14:30:50.625Z,96663.00
2022-09-24T14:35:55.243Z,96671.00
2022-09-24T14:41:05.574Z,96681.00
2022-09-24T14:46:15.194Z,96682.00
2022-09-24T14:51:30.006Z,96683.00
2022-09-24T14:56:32.891Z,96677.00
2022-09-24T15:01:33.796Z,96683.00
2022-09-24T15:06:36.667Z,96675.00
2022-09-24T15:11:43.381Z,96675.00
2022-09-24T15:16:50.152Z,96671.00
2022-09-24T15:21:54.707Z,96684.00
2022-09-24T15:27:04.167Z,96683.00
2022-09-24T15:32:14.958Z,96679.00
2022-09-24T15:37:19.552Z,96687.00
2022-09-24T15:42:22.775Z,96709.00
2022-09-24T15:47:23.633Z,96690.00
2022-09-24T15:52:28.488Z,96694.00
2022-09-24T15:57:29.499Z,96683.00
2022-09-24T16:02:32.414Z,96683.00
2022-09-24T16:07:33.209Z,96683.00
2022-09-24T16:12:34.071Z,96675.00
2022-09-24T16:17:34.841Z,96668.00
2022-09-24T16:22:35.801Z,96686.00
2022-09-24T16:27:36.750Z,96688.00
2022-09-24T16:32:37.520Z,96691.00
2022-09-24T16:37:39.681Z,96694.00
2022-09-24T16:42:40.433Z,96694.00
2022-09-24T16:47:41.197Z,96695.00
2022-09-24T16:52:45.162Z,96699.00
2022-09-24T16:57:45.958Z,96693.00
2022-09-24T17:02:46.945Z,96697.00
2022-09-24T17:07:47.907Z,96689.00
2022-09-24T17:12:50.427Z,96689.00
2022-09-24T17:17:51.295Z,96692.00
2022-09-24T17:22:52.750Z,96694.00
2022-09-24T17:27:53.470Z,96693.00
2022-09-24T17:32:54.398Z,96687.00
2022-09-24T17:37:55.135Z,96696.00
2022-09-24T17:42:56.095Z,96704.00
2022-09-24T17:47:56.869Z,96702.00
2022-09-24T17:52:57.879Z,96711.00
2022-09-24T17:57:58.709Z,96711.00
2022-09-24T18:02:59.596Z,96719.00
2022-09-24T18:08:00.661Z,96719.00
2022-09-24T18:13:01.991Z,96720.00
2022-09-24T18:18:03.368Z,96725.00
2022-09-24T18:23:04.869Z,96722.00
2022-09-24T18:28:07.907Z,96728.00
2022-09-24T18:33:08.989Z,96726.00
2022-09-24T18:38:09.737Z,96729.00
2022-09-24T18:43:10.571Z,96733.00
2022-09-24T18:48:11.324Z,96737.00
2022-09-24T18:53:12.172Z,96735.00
2022-09-24T18:58:12.940Z,96733.00
2022-09-24T19:03:14.330Z,96736.00
2022-09-24T19:08:15.785Z,96737.00
2022-09-24T19:13:16.845Z,96736.00
2022-09-24T19:18:17.610Z,96742.00
2022-09-24T19:23:18.519Z,96737.00
2022-09-24T19:28:19.396Z,96740.00
2022-09-24T19:33:20.257Z,96746.00
2022-09-24T19:38:22.484Z,96744.00
2022-09-24T19:43:23.809Z,96748.00
2022-09-24T19:48:29.150Z,96755.00
2022-09-24T19:53:30.638Z,96750.00
2022-09-24T19:58:32.191Z,96753.00
2022-09-24T20:03:34.836Z,96752.00
2022-09-24T20:08:36.120Z,96760.00
2022-09-24T20:13:45.605Z,96760.00
2022-09-24T20:18:50.894Z,96760.00
2022-09-24T20:23:54.280Z,96758.00
2022-09-24T20:28:55.094Z,96750.00
2022-09-24T20:33:55.880Z,96756.00
2022-09-24T20:38:57.860Z,96756.00
2022-09-24T20:43:58.600Z,96759.00
2022-09-24T20:49:00.187Z,96764.00
2022-09-24T20:54:01.869Z,96761.00
2022-09-24T20:59:02.710Z,96762.00
2022-09-24T21:04:03.620Z,96760.00
2022-09-24T21:09:04.513Z,96759.00
2022-09-24T21:14:10.251Z,96761.00
2022-09-24T21:19:13.529Z,96761.00
2022-09-24T21:24:15.047Z,96758.00
2022-09-24T21:29:19.789Z,96768.00
2022-09-24T21:34:20.589Z,96769.00
2022-09-24T21:39:23.091Z,96766.00
2022-09-24T21:44:24.454Z,96768.00
2022-09-24T21:49:25.763Z,96771.00
2022-09-24T21:54:26.787Z,96775.00
2022-09-24T21:59:45.718Z,96783.00
2022-09-24T22:04:47.083Z,96784.00
2022-09-24T22:09:49.216Z,96784.00
2022-09-24T22:14:51.677Z,96781.00
2022-09-24T22:19:52.408Z,96777.00
2022-09-24T22:24:53.423Z,96772.00
2022-09-24T22:29:54.150Z,96767.00
2022-09-24T22:35:13.315Z,96773.00
2022-09-24T22:40:14.482Z,96768.00
2022-09-24T22:45:15.453Z,96767.00
2022-09-24T22:50:16.187Z,96763.00
2022-09-24T22:55:17.377Z,96764.00
2022-09-24T23:00:18.223Z,96768.00
2022-09-24T23:05:19.094Z,96763.00
2022-09-24T23:10:19.899Z,96755.00
2022-09-24T23:15:20.782Z,96755.00
2022-09-24T23:20:21.937Z,96746.00
2022-09-24T23:25:22.951Z,96750.00
2022-09-24T23:30:23.780Z,96740.00
2022-09-24T23:35:24.606Z,96751.00
2022-09-24T23:40:25.865Z,96747.00
2022-09-24T23:45:27.004Z,96740.00
2022-09-24T23:50:27.749Z,96746.00
2022-09-24T23:55:28.655Z,96749.00
